Time;durP1;ratioP1;P1;durP2;ratioP2;P2;SDS_P1;SDS_P2;PMS_P1;PMS_P2;Temp;Humidity;BMP_temperature;BMP_pressure;BME280_temperature;BME280_humidity;BME280_pressure;Samples;Min_cycle;Max_cycle;Signal;HPM_P1;HPM_P2
2022/08/31 00:05:44;;;;;;;10.90;8.83;;;;;;;25.13;55.82;96903.28;5086938;28;20235;-78
2022/08/31 00:08:11;;;;;;;12.23;8.67;;;;;;;25.10;55.89;96902.78;5086004;28;20190;-77
2022/08/31 00:10:40;;;;;;;12.03;8.10;;;;;;;25.07;55.58;96911.88;5087143;28;20197;-75
2022/08/31 00:13:11;;;;;;;10.30;8.63;;;;;;;25.10;55.63;96893.00;5085500;28;20526;-76
2022/08/31 00:15:38;;;;;;;14.23;8.17;;;;;;;24.85;55.55;96905.34;5087177;28;20191;-75
2022/08/31 00:18:05;;;;;;;11.27;8.47;;;;;;;24.85;56.23;96904.56;5085960;28;20244;-74
2022/08/31 00:20:33;;;;;;;9.67;7.83;;;;;;;25.03;55.63;96902.59;5086856;28;20190;-72
2022/08/31 00:23:06;;;;;;;10.37;8.30;;;;;;;24.99;56.26;96903.91;5086776;28;20215;-77
2022/08/31 00:25:34;;;;;;;12.70;8.27;;;;;;;24.91;56.16;96903.91;5085938;28;20718;-77
2022/08/31 00:28:02;;;;;;;15.43;8.67;;;;;;;24.94;55.83;96898.25;5087065;28;20191;-72
2022/08/31 00:30:30;;;;;;;12.00;8.37;;;;;;;24.92;55.79;96906.38;5084208;28;20698;-77
2022/08/31 00:32:58;;;;;;;12.83;7.83;;;;;;;24.80;55.90;96896.25;5087047;28;20218;-75
2022/08/31 00:35:26;;;;;;;13.00;8.80;;;;;;;24.73;56.38;96895.22;5084674;28;20277;-78
2022/08/31 00:37:54;;;;;;;11.83;8.77;;;;;;;24.80;56.73;96902.38;5089573;28;20189;-77
2022/08/31 00:40:23;;;;;;;10.47;8.57;;;;;;;24.80;56.42;96896.25;5089376;28;20637;-74
2022/08/31 00:42:51;;;;;;;11.03;8.40;;;;;;;24.77;56.50;96893.94;5089861;28;20200;-73
2022/08/31 00:45:18;;;;;;;11.93;8.67;;;;;;;24.63;56.62;96890.03;5089524;28;20245;-75
2022/08/31 00:47:45;;;;;;;14.67;8.80;;;;;;;24.77;56.00;96892.09;5088106;28;20708;-72
2022/08/31 00:50:15;;;;;;;13.10;9.07;;;;;;;24.62;56.35;96892.84;5089539;28;20598;-74
2022/08/31 00:52:49;;;;;;;15.27;8.50;;;;;;;24.56;56.81;96894.31;5089425;28;20610;-73
2022/08/31 00:55:21;;;;;;;13.77;8.60;;;;;;;24.50;56.33;96894.13;5072388;28;20247;-73
2022/08/31 00:57:51;;;;;;;11.70;7.87;;;;;;;24.46;56.91;96887.50;5090527;28;20247;-72
2022/08/31 01:00:24;;;;;;;10.67;8.13;;;;;;;24.33;57.12;96869.41;5089215;28;20201;-76
2022/08/31 01:02:54;;;;;;;11.33;8.33;;;;;;;24.34;56.75;96878.19;5089225;28;20201;-76
2022/08/31 01:05:22;;;;;;;12.00;7.83;;;;;;;24.35;56.77;96877.19;5089233;28;20197;-78
2022/08/31 01:07:50;;;;;;;10.53;8.67;;;;;;;24.38;56.89;96874.22;5089259;28;20181;-76
2022/08/31 01:10:20;;;;;;;13.93;8.17;;;;;;;24.30;57.06;96871.53;5089436;28;20182;-78
2022/08/31 01:12:51;;;;;;;9.93;7.73;;;;;;;24.24;56.60;96873.81;5089770;28;20262;-76
2022/08/31 01:15:19;;;;;;;8.07;6.83;;;;;;;24.04;56.88;96872.41;5088924;28;20195;-75
2022/08/31 01:17:51;;;;;;;8.67;7.27;;;;;;;24.03;56.99;96873.38;5087746;28;20186;-75
2022/08/31 01:20:30;;;;;;;11.53;7.90;;;;;;;24.05;57.01;96860.00;5089105;28;20187;-73
2022/08/31 01:23:11;;;;;;;14.17;8.00;;;;;;;23.96;57.38;96856.44;5071441;28;20238;-77
2022/08/31 01:25:43;;;;;;;10.63;8.40;;;;;;;24.03;57.71;96860.16;5088370;28;20221;-76
2022/08/31 01:28:11;;;;;;;11.07;7.97;;;;;;;24.14;57.24;96849.28;5088651;28;20640;-76
2022/08/31 01:30:39;;;;;;;10.10;7.63;;;;;;;24.28;56.95;96857.63;5070849;28;20239;-76
2022/08/31 01:33:10;;;;;;;11.17;7.13;;;;;;;24.19;57.24;96859.41;5071513;28;20225;-72
2022/08/31 01:35:38;;;;;;;10.60;7.93;;;;;;;24.19;57.55;96859.41;5087511;28;20189;-71
2022/08/31 01:38:05;;;;;;;10.63;7.73;;;;;;;24.21;58.07;96863.53;5090241;28;20185;-72
2022/08/31 01:40:36;;;;;;;12.27;8.30;;;;;;;24.33;58.25;96864.09;5070991;28;20185;-72
2022/08/31 01:43:03;;;;;;;11.23;7.67;;;;;;;24.34;57.12;96875.53;5070777;28;20197;-73
2022/08/31 01:45:30;;;;;;;11.10;8.57;;;;;;;24.44;56.92;96876.22;5088109;28;20301;-72
2022/08/31 01:47:59;;;;;;;14.60;8.53;;;;;;;24.43;57.80;96877.19;5086224;28;20587;-72
2022/08/31 01:50:27;;;;;;;10.50;8.60;;;;;;;24.42;57.23;96875.56;5071375;28;20702;-74
2022/08/31 01:52:54;;;;;;;11.77;8.27;;;;;;;24.42;57.77;96870.28;5088164;28;20278;-77
2022/08/31 01:55:22;;;;;;;11.80;7.70;;;;;;;24.37;57.14;96865.44;5088306;28;20193;-76
2022/08/31 01:57:49;;;;;;;10.93;8.57;;;;;;;24.15;57.74;96861.53;5087268;28;20192;-75
2022/08/31 02:00:50;;;;;;;11.70;8.67;;;;;;;23.97;58.45;96878.44;5087223;28;20186;-75
2022/08/31 02:03:17;;;;;;;10.77;8.67;;;;;;;23.83;59.50;96869.25;5089640;28;20627;-76
2022/08/31 02:05:44;;;;;;;10.80;7.93;;;;;;;23.90;58.83;96866.81;5088142;28;20197;-77
2022/08/31 02:08:12;;;;;;;9.73;8.30;;;;;;;23.96;58.50;96876.78;5089336;28;20201;-76
2022/08/31 02:10:39;;;;;;;10.23;8.30;;;;;;;23.85;59.65;96872.59;5086919;28;20695;-74
2022/08/31 02:13:06;;;;;;;12.30;8.70;;;;;;;23.64;60.38;96866.81;5088755;28;20230;-72
2022/08/31 02:15:37;;;;;;;10.87;8.50;;;;;;;23.62;60.04;96871.41;5087636;28;20182;-72
2022/08/31 02:18:06;;;;;;;11.40;8.17;;;;;;;23.54;60.15;96878.47;5086611;28;20200;-77
2022/08/31 02:20:38;;;;;;;12.40;8.70;;;;;;;23.48;60.69;96874.63;5087704;28;20246;-73
2022/08/31 02:23:05;;;;;;;9.70;8.63;;;;;;;23.29;61.63;96872.13;5086222;28;20204;-75
2022/08/31 02:25:33;;;;;;;11.33;8.67;;;;;;;23.02;62.28;96874.88;5087615;28;20211;-71
2022/08/31 02:28:02;;;;;;;12.77;8.80;;;;;;;22.91;62.67;96869.78;5086409;28;20811;-77
2022/08/31 02:30:29;;;;;;;11.70;8.03;;;;;;;22.82;62.82;96865.41;5070244;28;20266;-74
2022/08/31 02:32:57;;;;;;;12.17;8.60;;;;;;;22.65;63.55;96870.50;5088477;28;20717;-72
2022/08/31 02:35:24;;;;;;;9.33;8.43;;;;;;;22.53;64.06;96871.66;5086304;28;20202;-72
2022/08/31 02:37:51;;;;;;;13.80;9.27;;;;;;;22.47;64.37;96859.06;5087428;28;20203;-76
2022/08/31 02:40:19;;;;;;;11.47;9.07;;;;;;;22.39;65.00;96877.44;5087356;28;20202;-71
2022/08/31 02:42:46;;;;;;;12.33;9.73;;;;;;;22.26;65.67;96879.59;5087290;28;20216;-71
2022/08/31 02:45:24;;;;;;;10.33;8.80;;;;;;;22.39;64.94;96872.16;5086057;28;20677;-73
2022/08/31 02:47:57;;;;;;;12.47;8.60;;;;;;;22.50;64.55;96877.22;5086755;28;20641;-71
2022/08/31 02:50:40;;;;;;;13.37;8.87;;;;;;;22.59;64.52;96875.56;5088324;28;20183;-72
2022/08/31 02:53:10;;;;;;;10.90;8.03;;;;;;;22.76;64.02;96876.56;5085679;28;20243;-72
2022/08/31 02:55:38;;;;;;;13.53;8.17;;;;;;;22.85;63.45;96879.16;5087071;28;20196;-72
2022/08/31 02:58:05;;;;;;;14.73;9.43;;;;;;;22.90;63.71;96876.03;5087108;28;20236;-72
2022/08/31 03:00:33;;;;;;;14.73;8.53;;;;;;;23.00;62.95;96872.34;5086493;28;20185;-74
2022/08/31 03:03:01;;;;;;;14.53;9.03;;;;;;;22.89;63.66;96874.41;5086493;28;20304;-72
2022/08/31 03:05:31;;;;;;;11.73;8.70;;;;;;;22.67;63.87;96872.19;5085971;28;20594;-73
2022/08/31 03:07:57;;;;;;;13.07;9.10;;;;;;;22.73;63.95;96885.59;5086881;28;20263;-71
2022/08/31 03:10:26;;;;;;;10.10;8.50;;;;;;;22.63;64.08;96869.84;5068520;28;20211;-78
2022/08/31 03:12:53;;;;;;;13.03;8.60;;;;;;;22.58;64.62;96866.81;5087842;28;20226;-73
2022/08/31 03:15:23;;;;;;;13.67;9.40;;;;;;;22.54;64.82;96873.34;5085240;28;20587;-74
2022/08/31 03:17:51;;;;;;;12.97;9.27;;;;;;;22.09;66.77;96872.41;5086374;28;20190;-72
2022/08/31 03:20:21;;;;;;;13.73;9.10;;;;;;;22.07;66.70;96868.28;5086067;28;20659;-72
2022/08/31 03:22:49;;;;;;;11.17;9.57;;;;;;;21.89;67.37;96873.47;5085607;28;20197;-75
2022/08/31 03:25:19;;;;;;;14.13;9.30;;;;;;;21.79;67.66;96880.56;5069577;28;20206;-76
2022/08/31 03:27:46;;;;;;;15.07;8.63;;;;;;;21.75;67.99;96873.91;5086339;28;20570;-75
2022/08/31 03:30:16;;;;;;;13.50;9.20;;;;;;;21.57;68.49;96880.88;5086144;28;20198;-76
2022/08/31 03:32:52;;;;;;;12.43;8.57;;;;;;;21.50;68.76;96879.78;5084929;28;20605;-77
2022/08/31 03:35:24;;;;;;;13.43;9.87;;;;;;;21.49;68.93;96880.75;5087410;28;20267;-74
2022/08/31 03:37:51;;;;;;;13.43;9.90;;;;;;;21.38;69.41;96891.44;5069224;28;20689;-76
2022/08/31 03:40:19;;;;;;;14.30;9.37;;;;;;;21.16;70.10;96884.66;5085058;28;20189;-74
2022/08/31 03:42:46;;;;;;;13.00;9.63;;;;;;;21.25;69.68;96886.44;5085960;28;20197;-77
2022/08/31 03:45:14;;;;;;;13.87;10.03;;;;;;;21.34;69.56;96893.53;5084538;28;20225;-76
2022/08/31 03:47:42;;;;;;;15.43;10.17;;;;;;;21.32;69.78;96903.38;5086164;28;20188;-75
2022/08/31 03:50:15;;;;;;;10.63;9.53;;;;;;;21.55;69.23;96898.66;5084456;28;20198;-73
2022/08/31 03:53:03;;;;;;;16.40;10.87;;;;;;;21.58;68.92;96896.53;5085047;28;20647;-72
2022/08/31 03:55:32;;;;;;;12.83;9.93;;;;;;;21.58;68.76;96899.19;5085823;28;20230;-73
2022/08/31 03:57:59;;;;;;;10.53;9.27;;;;;;;21.52;68.48;96894.47;5067711;28;20545;-71
2022/08/31 04:00:27;;;;;;;15.07;9.60;;;;;;;21.48;68.79;96897.53;5068810;28;20680;-72
2022/08/31 04:03:00;;;;;;;14.07;9.63;;;;;;;21.52;68.83;96910.28;5084272;28;20185;-75
2022/08/31 04:05:35;;;;;;;13.87;10.60;;;;;;;21.66;68.24;96911.66;5086878;28;20194;-76
2022/08/31 04:08:35;;;;;;;12.80;9.70;;;;;;;21.64;67.90;96903.06;5062798;28;20280;-76
2022/08/31 04:11:28;;;;;;;14.27;9.13;;;;;;;21.57;68.13;96909.88;5044976;28;20215;-77
2022/08/31 04:14:30;;;;;;;11.70;8.50;;;;;;;21.43;68.26;96905.84;5052355;28;20751;-77
2022/08/31 04:17:16;;;;;;;13.03;9.63;;;;;;;21.33;68.22;96905.03;5048319;28;20191;-75
2022/08/31 04:19:48;;;;;;;13.77;9.40;;;;;;;21.57;68.02;96907.25;5063547;28;20268;-74
2022/08/31 04:22:26;;;;;;;14.57;8.77;;;;;;;21.85;66.42;96901.94;5048606;28;20715;-76
2022/08/31 04:25:16;;;;;;;13.77;8.17;;;;;;;22.19;65.29;96896.16;5064659;28;20194;-77
2022/08/31 04:27:49;;;;;;;10.70;8.87;;;;;;;22.24;64.67;96907.06;5068541;28;20206;-73
2022/08/31 04:30:17;;;;;;;12.93;8.67;;;;;;;22.36;64.09;96895.38;5068485;28;20225;-76
2022/08/31 04:32:44;;;;;;;13.43;7.97;;;;;;;22.31;64.26;96911.66;5084000;28;20584;-76
2022/08/31 04:35:12;;;;;;;16.90;8.67;;;;;;;22.48;64.15;96905.56;5068376;28;20237;-76
2022/08/31 04:37:40;;;;;;;14.33;8.97;;;;;;;22.56;63.56;96903.06;5084405;28;20280;-76
2022/08/31 04:40:18;;;;;;;10.27;8.27;;;;;;;22.89;63.22;96914.84;5085240;28;20199;-75
2022/08/31 04:42:52;;;;;;;12.60;8.50;;;;;;;23.15;62.04;96914.94;5085360;28;20192;-75
2022/08/31 04:45:23;;;;;;;12.33;9.23;;;;;;;23.29;61.58;96904.66;5084106;28;20239;-77
2022/08/31 04:47:53;;;;;;;14.80;8.67;;;;;;;23.69;60.58;96906.84;5086785;28;20206;-76
2022/08/31 04:50:21;;;;;;;14.00;8.20;;;;;;;23.91;59.81;96909.00;5083920;28;20200;-77
2022/08/31 04:53:04;;;;;;;11.27;8.20;;;;;;;23.92;58.84;96900.09;5070450;28;20732;-76
2022/08/31 04:55:33;;;;;;;13.50;7.97;;;;;;;23.80;59.49;96919.81;5086266;28;20218;-75
2022/08/31 04:58:00;;;;;;;10.40;8.17;;;;;;;23.78;59.66;96916.50;5067803;28;20194;-74
2022/08/31 05:00:29;;;;;;;14.53;9.40;;;;;;;23.55;60.13;96912.69;5085268;28;20189;-74
2022/08/31 05:03:14;;;;;;;12.17;8.17;;;;;;;23.73;59.36;96908.22;5085628;28;20287;-75
2022/08/31 05:05:45;;;;;;;10.03;7.63;;;;;;;24.23;57.90;96911.84;5085656;28;20194;-75
2022/08/31 05:08:12;;;;;;;14.40;8.90;;;;;;;24.43;57.88;96899.22;5085711;28;20190;-75
2022/08/31 05:10:40;;;;;;;14.20;8.10;;;;;;;24.84;56.42;96905.53;5086632;28;20191;-76
2022/08/31 05:13:07;;;;;;;11.43;8.43;;;;;;;25.09;54.78;96907.25;5086330;28;20729;-76
2022/08/31 05:15:40;;;;;;;10.13;7.67;;;;;;;25.15;54.83;96903.94;5084277;28;20226;-76
2022/08/31 05:18:09;;;;;;;12.77;7.60;;;;;;;25.20;55.10;96909.59;5085377;28;20188;-76
2022/08/31 05:20:41;;;;;;;12.50;7.33;;;;;;;25.48;54.37;96897.72;5084054;28;20616;-75
2022/08/31 05:23:10;;;;;;;14.43;7.80;;;;;;;25.65;54.55;96902.03;5088020;28;20229;-74
2022/08/31 05:25:39;;;;;;;13.80;8.90;;;;;;;25.71;54.62;96898.72;5089014;28;20193;-75
2022/08/31 05:28:06;;;;;;;13.10;8.90;;;;;;;25.90;53.43;96891.38;5089801;28;20195;-76
2022/08/31 05:30:34;;;;;;;12.40;8.40;;;;;;;26.20;52.78;96893.34;5088485;28;20177;-75
2022/08/31 05:33:05;;;;;;;11.67;8.33;;;;;;;26.08;53.26;96884.06;5070483;28;20223;-75
2022/08/31 05:35:33;;;;;;;14.87;9.80;;;;;;;26.21;53.20;96895.84;5088926;28;20193;-75
2022/08/31 05:38:01;;;;;;;11.47;8.20;;;;;;;26.05;53.93;96897.66;5087097;28;21042;-75
2022/08/31 05:40:29;;;;;;;14.50;8.77;;;;;;;26.39;52.46;96898.25;5071621;28;20254;-76
2022/08/31 05:42:58;;;;;;;17.67;9.63;;;;;;;26.54;52.47;96891.25;5087545;28;20204;-77
2022/08/31 05:45:25;;;;;;;12.13;8.50;;;;;;;26.49;52.36;96893.56;5088240;28;20819;-75
2022/08/31 05:47:53;;;;;;;15.17;8.97;;;;;;;26.27;52.95;96894.31;5071567;28;20181;-75
2022/08/31 05:50:21;;;;;;;13.03;10.33;;;;;;;26.25;53.08;96891.00;5070303;28;20218;-75
2022/08/31 05:52:49;;;;;;;12.50;9.83;;;;;;;26.36;53.34;96890.63;5088054;28;20220;-75
2022/08/31 05:55:16;;;;;;;15.53;9.13;;;;;;;26.46;52.90;96892.06;5086899;28;20188;-74
2022/08/31 05:57:43;;;;;;;10.47;9.27;;;;;;;26.61;51.98;96897.50;5088292;28;20193;-73
2022/08/31 06:00:11;;;;;;;14.10;8.90;;;;;;;26.55;52.32;96903.50;5086870;28;20187;-74
2022/08/31 06:02:38;;;;;;;17.83;10.00;;;;;;;26.79;52.53;96899.97;5089057;28;20261;-75
2022/08/31 06:05:08;;;;;;;11.17;8.83;;;;;;;26.62;52.49;96904.50;5070922;28;20281;-75
2022/08/31 06:07:35;;;;;;;19.70;12.97;;;;;;;26.70;53.14;96906.28;5086735;28;20683;-75
2022/08/31 06:10:08;;;;;;;13.07;9.50;;;;;;;26.65;51.71;96908.63;5087937;28;20298;-75
2022/08/31 06:12:37;;;;;;;16.30;9.77;;;;;;;26.46;52.89;96909.88;5086564;28;20192;-77
2022/08/31 06:15:06;;;;;;;15.10;9.53;;;;;;;26.40;52.76;96906.03;5087847;28;20192;-74
2022/08/31 06:17:34;;;;;;;19.33;11.37;;;;;;;26.60;52.54;96901.97;5086681;28;20184;-75
2022/08/31 06:20:04;;;;;;;14.27;9.87;;;;;;;26.76;53.22;96906.44;5087358;28;20637;-77
2022/08/31 06:22:35;;;;;;;16.30;9.43;;;;;;;26.14;52.58;96900.16;5087722;28;20188;-77
2022/08/31 06:25:09;;;;;;;15.23;9.23;;;;;;;26.10;53.65;96895.34;5087879;28;20220;-75
2022/08/31 06:27:37;;;;;;;12.63;9.27;;;;;;;26.18;53.69;96900.63;5087238;28;20188;-75
2022/08/31 06:30:06;;;;;;;14.93;8.60;;;;;;;25.43;55.83;96905.31;5069229;28;20671;-76
2022/08/31 06:32:34;;;;;;;15.10;9.33;;;;;;;25.90;54.23;96902.84;5086976;28;20196;-74
2022/08/31 06:35:03;;;;;;;11.60;7.87;;;;;;;26.24;53.39;96899.97;5085386;28;20694;-75
2022/08/31 06:37:55;;;;;;;16.07;9.77;;;;;;;26.46;53.05;96907.22;5085643;28;20185;-74
2022/08/31 06:40:41;;;;;;;18.33;12.03;;;;;;;26.67;52.80;96910.09;5088393;28;20184;-75
2022/08/31 06:43:38;;;;;;;13.93;8.67;;;;;;;26.95;51.62;96900.69;5085720;28;20197;-75
2022/08/31 06:46:32;;;;;;;12.97;9.63;;;;;;;27.12;52.18;96918.19;5085643;28;20210;-76
2022/08/31 06:49:14;;;;;;;17.37;10.27;;;;;;;27.09;51.40;96912.41;5086658;28;20185;-75
2022/08/31 06:51:43;;;;;;;13.37;8.63;;;;;;;27.04;51.61;96904.94;5084963;28;20200;-78
2022/08/31 06:54:13;;;;;;;15.10;9.17;;;;;;;27.23;50.97;96909.81;5086350;28;20725;-76
2022/08/31 06:57:16;;;;;;;16.60;10.93;;;;;;;27.50;50.13;96912.97;5066096;28;20683;-78
2022/08/31 07:00:19;;;;;;;21.67;10.67;;;;;;;27.75;49.84;96907.31;5072622;28;20199;-77
2022/08/31 07:03:21;;;;;;;12.67;9.73;;;;;;;28.21;49.35;96909.88;5071841;28;20640;-78
2022/08/31 07:05:51;;;;;;;15.80;9.23;;;;;;;28.26;48.81;96912.81;5069102;28;20224;-77
2022/08/31 07:08:19;;;;;;;15.77;9.87;;;;;;;27.89;49.69;96911.00;5085145;28;20185;-75
2022/08/31 07:10:47;;;;;;;14.80;9.70;;;;;;;26.92;51.14;96901.03;5086224;28;20181;-77
2022/08/31 07:13:14;;;;;;;15.50;9.33;;;;;;;27.45;50.57;96902.06;5084876;28;22147;-78
2022/08/31 07:15:41;;;;;;;17.73;11.77;;;;;;;27.75;50.24;96903.81;5069533;28;20196;-77
2022/08/31 07:18:11;;;;;;;17.30;9.60;;;;;;;27.90;50.24;96894.84;5085303;28;20191;-79
2022/08/31 07:20:39;;;;;;;15.67;9.40;;;;;;;28.00;50.23;96899.94;5085722;28;20192;-76
2022/08/31 07:23:10;;;;;;;15.40;11.20;;;;;;;27.86;50.12;96898.06;5085780;28;20204;-77
2022/08/31 07:25:45;;;;;;;11.80;9.07;;;;;;;27.58;50.21;96894.28;5084688;28;20288;-78
2022/08/31 07:28:13;;;;;;;12.27;9.40;;;;;;;27.82;49.83;96894.09;5086164;28;20714;-75
2022/08/31 07:30:43;;;;;;;15.07;9.53;;;;;;;27.56;50.03;96864.38;5084908;28;20188;-76
2022/08/31 07:33:15;;;;;;;13.77;8.80;;;;;;;27.86;50.27;96890.06;5085862;28;20242;-76
2022/08/31 07:35:49;;;;;;;11.20;9.30;;;;;;;28.24;49.73;96898.84;5085622;28;20235;-78
2022/08/31 07:43:58;;;;;;;13.47;8.83;;;;;;;28.26;48.43;96891.50;5084619;28;20193;-78
2022/08/31 07:46:28;;;;;;;14.17;9.00;;;;;;;28.24;48.55;96873.06;5068848;28;20713;-76
2022/08/31 07:48:59;;;;;;;12.80;8.10;;;;;;;28.48;47.25;96886.09;5085444;28;20216;-78
2022/08/31 07:51:55;;;;;;;18.90;11.73;;;;;;;28.64;46.61;96885.94;5071444;28;20176;-75
2022/08/31 07:54:43;;;;;;;11.97;8.67;;;;;;;28.27;47.53;96883.34;5086835;28;20300;-74
2022/08/31 07:57:24;;;;;;;15.27;10.03;;;;;;;28.19;47.82;96881.59;5052870;28;20687;-75
2022/08/31 08:00:07;;;;;;;12.53;8.23;;;;;;;28.57;47.65;96878.84;5084739;28;20181;-77
2022/08/31 08:02:47;;;;;;;13.87;8.77;;;;;;;28.47;48.30;96879.13;5072174;28;20227;-74
2022/08/31 08:05:25;;;;;;;14.80;9.40;;;;;;;28.47;47.63;96878.28;5083845;28;20184;-74
2022/08/31 08:08:21;;;;;;;12.87;8.63;;;;;;;28.44;46.99;96892.00;5086758;28;20200;-75
2022/08/31 08:11:15;;;;;;;11.40;9.03;;;;;;;28.23;46.59;96884.72;5085571;28;20599;-76
2022/08/31 08:13:58;;;;;;;14.07;8.70;;;;;;;28.13;48.15;96876.19;5084423;28;20224;-75
2022/08/31 08:16:54;;;;;;;12.53;8.20;;;;;;;28.24;47.92;96881.03;5084461;28;20196;-75
2022/08/31 08:19:35;;;;;;;15.37;8.90;;;;;;;28.30;47.38;96874.97;5084888;28;20667;-76
2022/08/31 08:22:03;;;;;;;15.43;10.03;;;;;;;28.41;47.63;96876.34;5084207;28;20275;-75
2022/08/31 08:24:47;;;;;;;14.67;9.13;;;;;;;28.80;45.57;96875.06;5085072;28;20658;-77
2022/08/31 08:27:33;;;;;;;13.53;7.97;;;;;;;29.07;45.42;96889.50;5086339;28;20192;-78
2022/08/31 08:30:13;;;;;;;14.97;8.10;;;;;;;29.24;43.61;96882.13;5085891;28;20187;-78
2022/08/31 08:32:43;;;;;;;18.27;9.07;;;;;;;29.11;44.65;96877.44;5085399;28;20184;-76
2022/08/31 08:35:12;;;;;;;13.67;8.73;;;;;;;29.34;45.14;96875.47;5084190;28;20227;-77
2022/08/31 08:37:42;;;;;;;9.80;7.30;;;;;;;29.31;44.37;96873.16;5069480;28;20193;-77
2022/08/31 08:40:42;;;;;;;9.07;7.80;;;;;;;29.39;44.23;96878.38;5069718;28;20195;-77
2022/08/31 08:43:17;;;;;;;10.90;7.97;;;;;;;29.47;45.47;96869.44;5067310;28;20196;-76
2022/08/31 08:45:50;;;;;;;18.07;8.50;;;;;;;29.39;44.68;96870.38;5067796;28;20235;-77
2022/08/31 08:48:27;;;;;;;14.83;8.17;;;;;;;29.47;44.59;96864.09;5083929;28;20188;-77
2022/08/31 08:50:55;;;;;;;14.67;8.07;;;;;;;29.93;44.51;96870.66;5085096;28;20188;-75
2022/08/31 08:53:31;;;;;;;16.80;8.00;;;;;;;30.12;43.79;96867.31;5084360;28;20188;-75
2022/08/31 08:56:19;;;;;;;13.70;7.83;;;;;;;30.23;43.91;96869.41;5083663;28;20769;-75
2022/08/31 08:59:01;;;;;;;15.40;8.83;;;;;;;30.26;44.31;96861.00;5071092;28;20290;-75
2022/08/31 09:01:36;;;;;;;11.73;7.57;;;;;;;30.29;43.18;96860.66;5071791;28;20200;-77
2022/08/31 09:04:47;;;;;;;17.03;9.83;;;;;;;30.50;42.29;96852.53;5071236;28;20204;-75
2022/08/31 09:07:43;;;;;;;17.30;7.70;;;;;;;30.16;42.29;96855.19;5090093;28;20195;-75
2022/08/31 09:10:40;;;;;;;14.17;7.93;;;;;;;29.94;44.01;96861.63;5086674;28;20198;-76
2022/08/31 09:13:42;;;;;;;17.60;8.47;;;;;;;30.20;41.83;96855.63;5089692;28;20279;-78
2022/08/31 09:16:16;;;;;;;13.87;7.83;;;;;;;30.56;42.10;96848.25;5089883;28;20291;-77
2022/08/31 09:18:52;;;;;;;16.27;7.83;;;;;;;30.81;41.86;96848.56;5087689;28;20192;-78
2022/08/31 09:21:24;;;;;;;15.43;8.23;;;;;;;30.97;40.76;96846.38;5072034;28;20177;-77
2022/08/31 09:24:27;;;;;;;13.57;7.50;;;;;;;31.09;40.80;96833.22;5087807;28;20626;-75
2022/08/31 09:27:17;;;;;;;14.23;7.70;;;;;;;31.10;40.53;96842.88;5083619;28;20319;-75
2022/08/31 09:29:48;;;;;;;12.43;6.97;;;;;;;31.27;40.61;96838.81;5072009;28;20624;-77
2022/08/31 09:32:21;;;;;;;14.13;6.90;;;;;;;31.21;39.57;96834.28;5088771;28;20679;-79
2022/08/31 09:34:54;;;;;;;18.67;8.03;;;;;;;31.14;40.09;96839.59;5055054;28;20235;-79
2022/08/31 09:37:32;;;;;;;13.27;6.90;;;;;;;31.28;39.61;96827.88;5071727;28;20266;-79
2022/08/31 09:40:13;;;;;;;10.87;6.93;;;;;;;31.29;39.61;96823.38;5086811;28;20271;-77
2022/08/31 09:42:42;;;;;;;12.23;6.93;;;;;;;31.23;38.90;96827.69;5089392;28;20279;-74
2022/08/31 09:45:28;;;;;;;17.30;6.67;;;;;;;31.48;39.04;96822.59;5086276;28;20298;-75
2022/08/31 09:48:00;;;;;;;14.37;7.57;;;;;;;31.63;39.65;96822.41;5089143;28;20211;-78
2022/08/31 09:50:35;;;;;;;13.17;7.20;;;;;;;31.84;38.63;96830.22;5088840;28;20189;-79
2022/08/31 09:56:04;;;;;;;12.87;6.37;;;;;;;31.04;40.84;96825.81;5089200;28;20281;-76
2022/08/31 09:58:33;;;;;;;12.63;6.83;;;;;;;30.80;40.74;96830.84;5087035;28;20194;-76
2022/08/31 10:01:12;;;;;;;14.47;7.53;;;;;;;29.91;43.22;96827.28;5088988;28;20198;-75
2022/08/31 10:03:44;;;;;;;10.93;7.13;;;;;;;29.42;43.73;96832.66;5089241;28;20283;-76
2022/08/31 10:06:45;;;;;;;11.17;6.90;;;;;;;29.46;43.14;96825.91;5087504;28;20213;-74
2022/08/31 10:09:20;;;;;;;12.80;6.53;;;;;;;29.48;42.95;96828.38;5086495;28;20200;-75
2022/08/31 10:11:52;;;;;;;13.87;7.07;;;;;;;29.36;44.07;96816.56;5086988;28;20191;-75
2022/08/31 10:14:49;;;;;;;14.40;6.70;;;;;;;29.42;42.58;96797.94;5086055;28;20224;-77
2022/08/31 10:17:27;;;;;;;13.00;6.13;;;;;;;29.36;42.95;96798.72;5086746;28;20231;-75
2022/08/31 10:20:08;;;;;;;12.83;6.27;;;;;;;29.36;43.38;96782.72;5088094;28;20189;-75
2022/08/31 10:22:45;;;;;;;15.80;6.50;;;;;;;29.43;44.17;96775.56;5087416;28;20184;-75
2022/08/31 10:25:21;;;;;;;15.60;6.40;;;;;;;29.48;43.54;96769.66;5087231;28;20188;-75
2022/08/31 10:28:10;;;;;;;17.13;6.90;;;;;;;29.40;42.63;96770.63;5087173;28;20187;-75
2022/08/31 10:30:46;;;;;;;12.47;6.77;;;;;;;29.20;43.41;96766.16;5088554;28;20227;-74
2022/08/31 10:33:20;;;;;;;11.93;6.73;;;;;;;29.19;43.92;96770.66;5087644;28;20196;-75
2022/08/31 10:35:59;;;;;;;11.03;7.03;;;;;;;28.92;45.43;96763.38;5087525;28;20226;-75
2022/08/31 10:38:36;;;;;;;14.00;7.47;;;;;;;29.03;46.07;96773.56;5088583;28;20180;-74
2022/08/31 10:41:15;;;;;;;10.97;7.23;;;;;;;29.16;46.56;96783.56;5087413;28;20283;-78
2022/08/31 10:43:49;;;;;;;12.13;7.60;;;;;;;29.14;46.64;96781.03;5088403;28;20253;-76
2022/08/31 10:46:17;;;;;;;11.23;7.23;;;;;;;29.21;46.61;96781.97;5087921;28;20262;-75
2022/08/31 10:48:51;;;;;;;14.77;8.07;;;;;;;29.14;46.32;96780.22;5087500;28;20184;-74
2022/08/31 10:51:45;;;;;;;13.90;7.70;;;;;;;29.09;46.56;96777.28;5086570;28;20199;-75
2022/08/31 10:54:26;;;;;;;12.07;7.80;;;;;;;29.04;46.80;96782.38;5085014;28;20221;-74
2022/08/31 10:57:07;;;;;;;13.17;7.87;;;;;;;28.84;47.16;96775.00;5086572;28;20200;-75
2022/08/31 10:59:59;;;;;;;10.40;6.87;;;;;;;28.81;46.64;96779.91;5085560;28;20224;-75
2022/08/31 11:02:41;;;;;;;9.13;5.93;;;;;;;28.81;45.84;96788.72;5086928;28;20195;-73
2022/08/31 11:05:37;;;;;;;12.50;6.47;;;;;;;28.81;44.59;96787.91;5087661;28;20184;-74
2022/08/31 11:08:11;;;;;;;13.27;6.60;;;;;;;28.71;44.76;96790.03;5087405;28;20276;-75
2022/08/31 11:10:51;;;;;;;13.17;6.93;;;;;;;28.54;45.87;96799.25;5085201;28;20212;-74
2022/08/31 11:13:45;;;;;;;9.63;6.43;;;;;;;28.48;45.65;96795.47;5087682;28;20199;-75
2022/08/31 11:16:27;;;;;;;14.53;6.80;;;;;;;28.39;45.71;96795.78;5086020;28;20567;-75
2022/08/31 11:19:11;;;;;;;12.40;6.67;;;;;;;28.37;45.08;96798.63;5085704;28;20203;-75
2022/08/31 11:21:58;;;;;;;13.07;6.37;;;;;;;28.38;45.51;96789.63;5087236;28;20195;-75
2022/08/31 11:24:46;;;;;;;10.53;6.43;;;;;;;28.29;46.51;96793.41;5086322;28;20303;-74
2022/08/31 11:27:19;;;;;;;8.67;6.23;;;;;;;28.39;44.98;96783.28;5087615;28;20185;-74
2022/08/31 11:30:01;;;;;;;10.20;6.63;;;;;;;28.69;45.38;96778.72;5085642;28;20587;-74
2022/08/31 11:32:33;;;;;;;11.57;6.13;;;;;;;28.50;44.73;96780.13;5086291;28;20197;-75
2022/08/31 11:35:08;;;;;;;10.23;6.60;;;;;;;28.59;44.55;96775.53;5087204;28;20219;-74
2022/08/31 11:37:57;;;;;;;11.03;6.40;;;;;;;28.37;44.60;96740.03;5085961;28;20176;-75
2022/08/31 11:40:40;;;;;;;11.43;6.27;;;;;;;28.62;45.46;96773.34;5085072;28;20673;-75
2022/08/31 11:43:33;;;;;;;12.93;6.53;;;;;;;28.65;46.22;96777.47;5085467;28;20196;-75
2022/08/31 11:46:29;;;;;;;15.23;6.63;;;;;;;28.49;46.46;96778.50;5085687;28;20224;-75
2022/08/31 11:48:57;;;;;;;10.87;6.50;;;;;;;28.39;47.19;96775.31;5086673;28;20234;-75
2022/08/31 11:51:46;;;;;;;12.00;6.93;;;;;;;28.51;47.14;96772.97;5084938;28;20189;-75
2022/08/31 11:54:23;;;;;;;11.30;6.40;;;;;;;28.72;46.45;96763.22;5085680;28;20293;-77
2022/08/31 11:56:55;;;;;;;14.10;7.33;;;;;;;28.86;46.31;96767.66;5086812;28;20659;-78
2022/08/31 11:59:37;;;;;;;15.23;6.57;;;;;;;28.85;44.81;96787.31;5085544;28;20208;-74
2022/08/31 12:02:19;;;;;;;12.93;6.57;;;;;;;28.93;46.45;96784.53;5086875;28;20727;-74
2022/08/31 12:04:50;;;;;;;13.87;7.53;;;;;;;29.25;45.70;96787.72;5085089;28;20195;-77
2022/08/31 12:07:39;;;;;;;17.23;6.60;;;;;;;29.43;44.54;96780.09;5067903;28;20220;-76
2022/08/31 12:10:32;;;;;;;11.83;6.63;;;;;;;29.64;44.26;96785.38;5086909;28;20218;-75
2022/08/31 12:13:17;;;;;;;9.30;6.10;;;;;;;29.46;42.51;96788.53;5084433;28;20230;-75